Time;durP1;ratioP1;P1;durP2;ratioP2;P2;SDS_P1;SDS_P2;PMS_P1;PMS_P2;Temp;Humidity;BMP_temperature;BMP_pressure;BME280_temperature;BME280_humidity;BME280_pressure;Samples;Min_cycle;Max_cycle;Signal;HPM_P1;HPM_P2
2021/12/03 00:01:43;;;;;;;14.15;5.63;;;11.60;99.90;;;;;;5273470;28;20112;-78
2021/12/03 00:04:14;;;;;;;8.75;3.85;;;11.60;99.90;;;;;;5273650;28;20015;-77
2021/12/03 00:06:45;;;;;;;11.13;4.15;;;11.60;99.90;;;;;;5291138;28;20450;-78
2021/12/03 00:09:16;;;;;;;10.60;5.03;;;11.50;99.90;;;;;;5291236;28;20028;-78
2021/12/03 00:11:47;;;;;;;12.38;4.10;;;11.50;99.90;;;;;;5272801;28;20500;-77
2021/12/03 00:14:18;;;;;;;15.52;6.45;;;11.50;99.90;;;;;;5290936;28;20416;-77
2021/12/03 00:16:48;;;;;;;15.95;4.72;;;11.60;99.90;;;;;;5290820;28;20084;-78
2021/12/03 00:19:19;;;;;;;9.65;4.05;;;11.70;99.90;;;;;;5290919;28;20030;-78
2021/12/03 00:21:50;;;;;;;10.90;4.60;;;11.50;99.90;;;;;;5290776;28;20023;-78
2021/12/03 00:24:21;;;;;;;13.77;4.32;;;11.70;99.90;;;;;;5290853;28;20028;-78
2021/12/03 00:26:52;;;;;;;11.27;4.68;;;11.50;99.90;;;;;;5290713;28;20027;-78
2021/12/03 00:29:23;;;;;;;9.13;3.80;;;11.40;99.90;;;;;;5291046;28;20049;-78
2021/12/03 00:31:53;;;;;;;19.60;8.60;;;11.50;99.90;;;;;;5290956;28;20028;-78
2021/12/03 00:34:26;;;;;;;13.60;4.75;;;11.10;99.90;;;;;;5290519;28;20033;-78
2021/12/03 00:36:57;;;;;;;12.30;3.97;;;11.30;99.90;;;;;;5290919;28;20016;-78
2021/12/03 00:39:28;;;;;;;10.52;4.68;;;11.20;99.90;;;;;;5291017;28;20023;-78
2021/12/03 00:42:02;;;;;;;12.57;4.82;;;11.30;99.90;;;;;;5272802;28;20077;-77
2021/12/03 00:44:33;;;;;;;12.48;4.75;;;11.30;99.90;;;;;;5272601;28;20031;-77
2021/12/03 00:47:04;;;;;;;14.65;4.95;;;11.10;99.90;;;;;;5272257;28;20382;-77
2021/12/03 00:49:35;;;;;;;10.18;4.90;;;11.30;99.90;;;;;;5271915;28;20036;-77
2021/12/03 00:52:07;;;;;;;16.45;4.47;;;11.30;99.90;;;;;;5290597;28;20028;-77
2021/12/03 00:54:37;;;;;;;13.30;4.93;;;11.30;99.90;;;;;;5290395;28;20055;-77
2021/12/03 00:57:09;;;;;;;8.63;3.75;;;11.30;99.90;;;;;;5290267;28;20513;-78
2021/12/03 00:59:40;;;;;;;6.15;3.05;;;11.40;99.90;;;;;;5290325;28;20501;-77
2021/12/03 01:02:11;;;;;;;13.48;3.80;;;11.50;99.90;;;;;;5290849;28;20027;-77
2021/12/03 01:04:41;;;;;;;14.50;4.80;;;11.40;99.90;;;;;;5290953;28;20098;-78
2021/12/03 01:07:14;;;;;;;12.73;4.43;;;11.30;99.90;;;;;;5290517;28;20039;-77
2021/12/03 01:09:45;;;;;;;10.63;4.25;;;11.40;99.90;;;;;;5290206;28;20039;-76
2021/12/03 01:12:17;;;;;;;14.27;4.50;;;11.40;99.90;;;;;;5290756;28;20523;-77
2021/12/03 01:14:47;;;;;;;10.95;4.15;;;11.20;99.90;;;;;;5272164;28;20024;-77
2021/12/03 01:17:18;;;;;;;12.73;3.88;;;11.30;99.90;;;;;;5290222;28;20486;-77
2021/12/03 01:19:49;;;;;;;8.93;3.65;;;11.30;99.90;;;;;;5289960;28;20036;-78
2021/12/03 01:22:20;;;;;;;8.35;3.40;;;11.40;99.90;;;;;;5290449;28;20024;-78
2021/12/03 01:24:51;;;;;;;6.63;3.10;;;11.60;99.90;;;;;;5289764;28;20042;-78
2021/12/03 01:27:22;;;;;;;9.75;3.10;;;11.80;99.90;;;;;;5290147;28;20020;-78
2021/12/03 01:29:55;;;;;;;9.18;2.80;;;11.80;99.90;;;;;;5289720;28;20402;-79
2021/12/03 01:32:26;;;;;;;11.10;2.80;;;11.80;99.90;;;;;;5289991;28;20379;-78
2021/12/03 01:34:56;;;;;;;5.80;2.95;;;11.80;99.90;;;;;;5289982;28;20019;-78
2021/12/03 01:37:27;;;;;;;8.00;2.80;;;11.80;99.90;;;;;;5290250;28;20019;-78
2021/12/03 01:39:58;;;;;;;7.65;3.38;;;11.70;99.90;;;;;;5289655;28;20056;-79
2021/12/03 01:42:29;;;;;;;9.65;3.10;;;11.90;99.90;;;;;;5289787;28;20106;-78
2021/12/03 01:45:00;;;;;;;9.80;2.88;;;11.70;99.90;;;;;;5290177;28;20379;-77
2021/12/03 01:47:31;;;;;;;7.80;2.95;;;11.80;99.90;;;;;;5292624;28;20024;-77
2021/12/03 01:50:03;;;;;;;6.93;2.78;;;11.80;99.90;;;;;;5294070;28;20032;-78
2021/12/03 01:52:34;;;;;;;9.52;2.78;;;11.60;99.90;;;;;;5275490;28;20073;-78
2021/12/03 01:55:09;;;;;;;6.88;2.95;;;11.80;99.90;;;;;;5293722;28;20482;-78
2021/12/03 01:57:40;;;;;;;7.60;2.63;;;11.90;99.90;;;;;;5293501;28;20043;-78
2021/12/03 02:00:20;;;;;;;8.90;3.20;;;12.00;99.90;;;;;;5293744;28;20034;-78
2021/12/03 02:02:51;;;;;;;11.65;4.40;;;12.10;99.90;;;;;;5293533;28;20115;-78
2021/12/03 02:05:22;;;;;;;9.70;2.78;;;11.80;99.90;;;;;;5293534;28;20019;-78
2021/12/03 02:07:53;;;;;;;9.73;2.50;;;12.40;99.90;;;;;;5294094;28;20123;-78
2021/12/03 02:10:25;;;;;;;7.15;2.90;;;12.30;99.90;;;;;;5293692;28;20098;-77
2021/12/03 02:12:56;;;;;;;7.32;2.72;;;12.50;99.90;;;;;;5275462;28;20036;-78
2021/12/03 02:15:27;;;;;;;7.35;2.55;;;12.30;99.90;;;;;;5293427;28;20024;-76
2021/12/03 02:17:58;;;;;;;9.93;3.13;;;12.60;99.90;;;;;;5293903;28;20077;-77
2021/12/03 02:20:29;;;;;;;9.30;2.83;;;12.20;99.90;;;;;;5293518;28;20020;-78
2021/12/03 02:23:00;;;;;;;4.28;2.53;;;12.20;99.90;;;;;;5293265;28;20031;-78
2021/12/03 02:25:30;;;;;;;11.27;3.60;;;12.10;99.90;;;;;;5293242;28;20383;-78
2021/12/03 02:28:02;;;;;;;10.18;3.13;;;11.90;99.90;;;;;;5292971;28;20441;-79
2021/12/03 02:30:43;;;;;;;10.25;4.13;;;12.20;99.90;;;;;;5274538;28;20557;-79
2021/12/03 02:33:16;;;;;;;8.77;3.40;;;12.30;99.90;;;;;;5292618;28;20122;-79
2021/12/03 02:36:04;;;;;;;12.77;3.35;;;12.20;99.90;;;;;;5292540;28;20027;-79
2021/12/03 02:38:42;;;;;;;14.40;3.20;;;12.10;99.90;;;;;;5274157;28;20435;-78
2021/12/03 02:41:23;;;;;;;8.73;3.30;;;12.00;99.90;;;;;;5289696;28;20038;-79
2021/12/03 02:43:54;;;;;;;13.43;3.88;;;12.00;99.90;;;;;;5292775;28;20482;-78
2021/12/03 02:46:24;;;;;;;9.63;3.58;;;11.80;99.90;;;;;;5293072;28;20043;-78
2021/12/03 02:48:55;;;;;;;10.50;4.05;;;11.90;99.90;;;;;;5292870;28;20032;-78
2021/12/03 02:51:26;;;;;;;13.48;4.72;;;11.90;99.90;;;;;;5292833;28;20024;-77
2021/12/03 02:53:57;;;;;;;16.70;4.97;;;11.90;99.90;;;;;;5274607;28;20034;-78
2021/12/03 02:56:28;;;;;;;11.25;4.13;;;11.90;99.90;;;;;;5273842;28;20034;-78
2021/12/03 02:58:59;;;;;;;15.30;4.82;;;11.90;99.90;;;;;;5291962;28;20491;-77
2021/12/03 03:01:31;;;;;;;19.85;4.40;;;11.90;99.90;;;;;;5274259;28;20043;-77
2021/12/03 03:04:02;;;;;;;27.40;7.13;;;11.90;99.90;;;;;;5292822;28;20027;-78
2021/12/03 03:06:34;;;;;;;15.82;5.72;;;11.70;99.90;;;;;;5274054;28;20475;-78
2021/12/03 03:09:09;;;;;;;22.10;5.50;;;11.90;99.90;;;;;;5292445;28;20063;-78
2021/12/03 03:11:40;;;;;;;20.23;6.15;;;11.80;99.90;;;;;;5274345;28;20016;-77
2021/12/03 03:14:11;;;;;;;16.13;6.20;;;11.70;99.90;;;;;;5292225;28;20023;-76
2021/12/03 03:16:42;;;;;;;25.55;8.82;;;11.80;99.90;;;;;;5292900;28;20452;-77
2021/12/03 03:19:17;;;;;;;20.02;7.97;;;11.70;99.90;;;;;;5292457;28;20020;-77
2021/12/03 03:21:48;;;;;;;16.02;6.43;;;11.70;99.90;;;;;;5273937;28;20424;-78
2021/12/03 03:24:20;;;;;;;23.48;7.45;;;11.70;99.90;;;;;;5292483;28;20015;-78
2021/12/03 03:26:51;;;;;;;16.48;5.78;;;11.60;99.90;;;;;;5291295;28;20188;-79
2021/12/03 03:29:22;;;;;;;20.02;7.65;;;11.70;99.90;;;;;;5291112;28;20050;-77
2021/12/03 03:31:53;;;;;;;15.98;6.15;;;11.80;99.90;;;;;;5291852;28;20072;-78
2021/12/03 03:34:24;;;;;;;19.27;7.22;;;11.70;99.90;;;;;;5291835;28;20053;-78
2021/12/03 03:36:55;;;;;;;19.38;6.45;;;11.60;99.90;;;;;;5291777;28;20107;-78
2021/12/03 03:39:27;;;;;;;17.50;5.90;;;11.60;99.90;;;;;;5291488;28;20363;-78
2021/12/03 03:41:58;;;;;;;17.73;7.20;;;11.60;99.90;;;;;;5291957;28;20028;-78
2021/12/03 03:44:29;;;;;;;15.52;5.20;;;11.50;99.90;;;;;;5273521;28;20471;-78
2021/12/03 03:47:01;;;;;;;23.20;6.10;;;11.60;99.90;;;;;;5291587;28;20024;-78
2021/12/03 03:49:32;;;;;;;19.02;7.45;;;11.60;99.90;;;;;;5291357;28;20034;-78
2021/12/03 03:52:04;;;;;;;22.17;5.85;;;11.70;99.90;;;;;;5291349;28;20495;-78
2021/12/03 03:54:36;;;;;;;18.67;6.13;;;11.60;99.90;;;;;;5291328;28;20502;-78
2021/12/03 03:57:07;;;;;;;21.58;7.30;;;11.60;99.90;;;;;;5272877;28;20042;-78
2021/12/03 03:59:38;;;;;;;17.27;6.40;;;11.80;99.90;;;;;;5291306;28;20032;-77
2021/12/03 04:02:08;;;;;;;14.93;5.65;;;11.90;99.90;;;;;;5291845;28;20024;-78
2021/12/03 04:04:39;;;;;;;13.48;5.28;;;12.00;99.90;;;;;;5291200;28;20024;-78
2021/12/03 04:07:10;;;;;;;18.30;5.60;;;12.00;99.90;;;;;;5291572;28;20032;-78
2021/12/03 04:09:41;;;;;;;22.02;7.05;;;11.90;99.90;;;;;;5272044;28;20077;-78
2021/12/03 04:12:12;;;;;;;16.75;6.43;;;11.90;99.90;;;;;;5291562;28;20027;-78
2021/12/03 04:14:43;;;;;;;17.33;6.97;;;11.90;99.90;;;;;;5291316;28;20491;-77
2021/12/03 04:17:14;;;;;;;17.35;6.40;;;11.90;99.90;;;;;;5290992;28;20076;-78
2021/12/03 04:19:45;;;;;;;21.33;7.13;;;11.90;99.90;;;;;;5291410;28;20024;-77
2021/12/03 04:22:18;;;;;;;23.30;6.60;;;11.90;99.90;;;;;;5290553;28;20111;-78
2021/12/03 04:24:50;;;;;;;16.45;6.25;;;11.80;99.90;;;;;;5291278;28;20508;-77
2021/12/03 04:27:22;;;;;;;17.17;7.13;;;11.90;99.90;;;;;;5290756;28;20028;-78
2021/12/03 04:29:52;;;;;;;13.73;4.88;;;12.00;99.90;;;;;;5272578;28;20089;-78
2021/12/03 04:32:25;;;;;;;19.33;5.35;;;12.10;99.90;;;;;;5290611;28;20032;-78
2021/12/03 04:34:56;;;;;;;15.70;5.80;;;12.10;99.90;;;;;;5290680;28;20019;-78
2021/12/03 04:37:27;;;;;;;15.75;6.00;;;12.00;99.90;;;;;;5290936;28;20023;-78
2021/12/03 04:39:58;;;;;;;15.18;6.22;;;12.10;99.90;;;;;;5290963;28;20367;-79
2021/12/03 04:42:28;;;;;;;13.85;6.50;;;12.00;99.90;;;;;;5290877;28;20019;-78
2021/12/03 04:44:59;;;;;;;16.23;7.45;;;12.00;99.90;;;;;;5290657;28;20382;-77
2021/12/03 04:47:30;;;;;;;18.50;7.20;;;11.90;99.90;;;;;;5290403;28;20020;-77
2021/12/03 04:50:06;;;;;;;21.42;7.18;;;12.00;99.90;;;;;;5290568;28;20028;-78
2021/12/03 04:52:37;;;;;;;20.13;7.43;;;12.00;99.90;;;;;;5290962;28;20451;-78
2021/12/03 04:55:11;;;;;;;22.42;7.30;;;12.00;99.90;;;;;;5290370;28;20042;-78
2021/12/03 04:57:42;;;;;;;17.10;6.32;;;12.20;99.90;;;;;;5290183;28;20147;-78
2021/12/03 05:00:23;;;;;;;17.50;7.22;;;12.20;99.90;;;;;;5290366;28;20103;-78
2021/12/03 05:02:55;;;;;;;13.93;6.80;;;12.20;99.90;;;;;;5289987;28;20023;-78
2021/12/03 05:05:30;;;;;;;23.92;6.38;;;12.20;99.90;;;;;;5290348;28;20351;-77
2021/12/03 05:08:07;;;;;;;14.48;6.57;;;12.20;99.90;;;;;;5290677;28;20042;-78
2021/12/03 05:10:41;;;;;;;11.35;5.70;;;12.30;99.90;;;;;;5290286;28;20024;-80
2021/12/03 05:13:14;;;;;;;19.50;6.78;;;12.40;99.90;;;;;;5290221;28;20034;-78
2021/12/03 05:15:45;;;;;;;15.80;6.28;;;12.40;99.90;;;;;;5290199;28;20028;-77
2021/12/03 05:18:20;;;;;;;14.25;6.60;;;12.30;99.90;;;;;;5281624;28;20036;-78
2021/12/03 05:20:53;;;;;;;13.23;6.13;;;12.40;99.90;;;;;;5252529;28;20020;-78
2021/12/03 05:23:25;;;;;;;21.73;8.85;;;12.50;99.90;;;;;;5255225;28;20035;-78
2021/12/03 05:25:57;;;;;;;15.57;6.10;;;12.40;99.90;;;;;;5273462;28;20020;-78
2021/12/03 05:28:30;;;;;;;13.77;6.22;;;12.40;99.90;;;;;;5273634;28;20391;-78
2021/12/03 05:31:01;;;;;;;16.40;6.85;;;12.30;99.90;;;;;;5273314;28;20017;-77
2021/12/03 05:33:32;;;;;;;15.98;7.93;;;12.50;99.90;;;;;;5273606;28;20444;-78
2021/12/03 05:36:03;;;;;;;15.93;7.85;;;12.40;99.90;;;;;;5254879;28;20020;-78
2021/12/03 05:38:33;;;;;;;15.90;7.13;;;12.40;99.90;;;;;;5273119;28;20387;-78
2021/12/03 05:41:04;;;;;;;14.10;6.35;;;12.50;99.90;;;;;;5272732;28;20414;-78
2021/12/03 05:43:35;;;;;;;17.13;6.72;;;12.40;99.90;;;;;;5273326;28;20031;-78
2021/12/03 05:46:06;;;;;;;15.27;6.53;;;12.50;99.90;;;;;;5272886;28;20028;-78
2021/12/03 05:48:37;;;;;;;15.27;6.85;;;12.50;99.90;;;;;;5272888;28;20036;-79
2021/12/03 05:51:10;;;;;;;16.23;5.95;;;12.60;99.90;;;;;;5272647;28;20028;-79
2021/12/03 05:53:41;;;;;;;12.50;5.70;;;12.60;99.90;;;;;;5285217;28;20019;-78
2021/12/03 05:56:12;;;;;;;17.02;5.20;;;12.70;99.90;;;;;;5293042;28;20391;-78
2021/12/03 05:58:44;;;;;;;10.50;4.95;;;12.70;99.90;;;;;;5292980;28;20052;-79
2021/12/03 06:01:15;;;;;;;14.10;6.30;;;12.80;99.90;;;;;;5274728;28;20494;-78
2021/12/03 06:03:47;;;;;;;15.95;6.57;;;12.60;99.90;;;;;;5274711;28;20031;-78
2021/12/03 06:06:17;;;;;;;16.02;5.50;;;12.80;99.90;;;;;;5293005;28;20108;-77
2021/12/03 06:08:49;;;;;;;13.80;6.00;;;12.80;99.90;;;;;;5292935;28;20067;-77
2021/12/03 06:11:20;;;;;;;14.02;5.55;;;12.80;99.90;;;;;;5292765;28;20015;-77
2021/12/03 06:13:51;;;;;;;12.95;5.47;;;12.70;99.90;;;;;;5292696;28;20046;-78
2021/12/03 06:16:22;;;;;;;10.63;5.22;;;12.80;99.90;;;;;;5292449;28;20511;-78
2021/12/03 06:18:53;;;;;;;14.30;5.43;;;12.90;99.90;;;;;;5292523;28;20028;-77
2021/12/03 06:21:24;;;;;;;10.95;4.65;;;13.00;99.90;;;;;;5292596;28;20026;-77
2021/12/03 06:23:55;;;;;;;10.10;4.68;;;13.10;99.90;;;;;;5292379;28;20067;-78
2021/12/03 06:26:26;;;;;;;11.50;4.82;;;13.20;99.90;;;;;;5292627;28;20050;-76
2021/12/03 06:28:56;;;;;;;12.27;4.95;;;13.50;99.90;;;;;;5292635;28;20172;-76
2021/12/03 06:31:27;;;;;;;9.02;4.03;;;13.50;99.90;;;;;;5291964;28;20020;-76
2021/12/03 06:33:58;;;;;;;9.50;4.15;;;13.60;99.90;;;;;;5291633;28;20073;-76
2021/12/03 06:36:29;;;;;;;10.45;4.18;;;13.70;99.90;;;;;;5292317;28;20423;-75
2021/12/03 06:39:00;;;;;;;12.57;4.45;;;13.90;99.90;;;;;;5292233;28;20063;-76
2021/12/03 06:41:31;;;;;;;10.85;3.97;;;13.90;99.90;;;;;;5273598;28;20412;-77
2021/12/03 06:44:04;;;;;;;11.00;4.50;;;13.80;99.90;;;;;;5292105;28;20019;-77
2021/12/03 06:46:36;;;;;;;11.15;4.75;;;14.10;99.90;;;;;;5291875;28;20039;-77
2021/12/03 06:49:07;;;;;;;7.45;4.10;;;14.20;99.90;;;;;;5291663;28;20027;-77
2021/12/03 06:51:42;;;;;;;10.68;4.50;;;14.30;99.90;;;;;;5292048;28;20030;-76
2021/12/03 06:54:14;;;;;;;9.38;3.92;;;14.20;99.90;;;;;;5292126;28;20019;-75
2021/12/03 06:56:53;;;;;;;11.05;4.15;;;14.40;99.90;;;;;;5291803;28;20027;-76
2021/12/03 06:59:25;;;;;;;12.93;4.22;;;14.50;99.90;;;;;;5291983;28;20047;-76
2021/12/03 07:01:56;;;;;;;12.85;4.10;;;14.50;99.90;;;;;;5291930;28;20026;-77
2021/12/03 07:04:27;;;;;;;8.30;4.13;;;14.60;99.90;;;;;;5291761;28;20019;-76
2021/12/03 07:06:59;;;;;;;13.05;4.18;;;14.60;99.90;;;;;;5291736;28;20358;-76
2021/12/03 07:09:29;;;;;;;11.45;3.95;;;14.70;99.90;;;;;;5291677;28;20397;-76
2021/12/03 07:12:00;;;;;;;13.13;4.13;;;14.80;99.90;;;;;;5291901;28;20012;-75
2021/12/03 07:14:31;;;;;;;7.90;3.65;;;14.90;99.90;;;;;;5291143;28;20032;-76
2021/12/03 07:17:06;;;;;;;10.98;4.35;;;15.00;99.90;;;;;;5290516;28;20424;-77
2021/12/03 07:19:37;;;;;;;12.45;3.70;;;15.00;99.90;;;;;;5290332;28;20058;-77
2021/12/03 07:22:08;;;;;;;7.72;3.38;;;15.10;99.90;;;;;;5290694;28;20412;-76
2021/12/03 07:24:39;;;;;;;7.22;3.63;;;15.20;99.90;;;;;;5289747;28;20027;-77
2021/12/03 07:27:11;;;;;;;10.48;3.53;;;15.30;99.90;;;;;;5278785;28;20036;-76
2021/12/03 07:29:47;;;;;;;7.90;2.95;;;15.40;99.90;;;;;;5273820;28;20047;-78
2021/12/03 07:32:20;;;;;;;9.50;3.40;;;15.50;99.90;;;;;;5291049;28;20019;-77
2021/12/03 07:34:54;;;;;;;10.00;3.58;;;15.60;99.90;;;;;;5290911;28;20028;-76
2021/12/03 07:37:25;;;;;;;8.30;3.17;;;15.60;99.90;;;;;;5290775;28;20023;-76
2021/12/03 07:39:58;;;;;;;6.95;3.40;;;15.70;99.90;;;;;;5291075;28;20020;-76
2021/12/03 07:42:30;;;;;;;12.30;3.97;;;15.70;99.90;;;;;;5290729;28;20031;-76
2021/12/03 07:45:03;;;;;;;8.73;3.58;;;15.70;99.90;;;;;;5290934;28;20031;-78
2021/12/03 07:47:33;;;;;;;13.40;3.85;;;15.80;99.90;;;;;;5290913;28;20042;-76
2021/12/03 07:50:07;;;;;;;7.68;3.15;;;15.80;99.90;;;;;;5290585;28;20031;-76
2021/12/03 07:52:38;;;;;;;9.98;3.53;;;16.00;99.90;;;;;;5290915;28;20016;-77
2021/12/03 07:55:10;;;;;;;11.73;2.97;;;16.20;99.90;;;;;;5290588;28;20030;-77
2021/12/03 07:57:40;;;;;;;11.70;2.72;;;16.00;99.90;;;;;;5289733;28;20040;-77
2021/12/03 08:00:12;;;;;;;7.13;3.22;;;16.00;99.90;;;;;;5272520;28;20027;-77
2021/12/03 08:02:43;;;;;;;9.13;3.10;;;16.40;99.90;;;;;;5272063;28;20084;-77
2021/12/03 08:05:14;;;;;;;8.95;3.50;;;16.70;99.90;;;;;;5290436;28;20019;-77
2021/12/03 08:07:47;;;;;;;10.85;2.67;;;16.70;99.90;;;;;;5290357;28;20420;-77
2021/12/03 08:10:18;;;;;;;8.40;2.60;;;16.60;99.90;;;;;;5290447;28;20497;-76
2021/12/03 08:12:49;;;;;;;8.48;2.90;;;16.60;99.90;;;;;;5290580;28;20035;-77
2021/12/03 08:15:20;;;;;;;8.15;2.78;;;16.70;99.90;;;;;;5290236;28;20419;-77
2021/12/03 08:17:51;;;;;;;10.07;2.85;;;17.00;99.90;;;;;;5290624;28;20544;-77
2021/12/03 08:20:24;;;;;;;5.47;2.65;;;17.20;99.90;;;;;;5290437;28;20012;-77
2021/12/03 08:22:55;;;;;;;13.93;3.15;;;17.20;99.90;;;;;;5272033;28;20478;-77
2021/12/03 08:25:26;;;;;;;7.45;2.42;;;17.30;99.90;;;;;;5289900;28;20043;-76
2021/12/03 08:27:57;;;;;;;9.18;2.60;;;16.90;99.90;;;;;;5271388;28;20027;-76
2021/12/03 08:30:29;;;;;;;9.55;2.83;;;17.00;99.90;;;;;;5289028;28;20032;-75
2021/12/03 08:33:00;;;;;;;9.15;2.60;;;17.50;99.90;;;;;;5290530;28;20102;-77
2021/12/03 08:35:31;;;;;;;14.20;3.33;;;17.50;99.90;;;;;;5289847;28;20106;-77
2021/12/03 08:38:03;;;;;;;6.38;2.60;;;17.50;99.90;;;;;;5290095;28;20035;-76
2021/12/03 08:40:34;;;;;;;6.85;2.50;;;17.50;99.90;;;;;;5271474;28;20012;-77
2021/12/03 08:43:05;;;;;;;5.78;2.58;;;17.40;99.90;;;;;;5289641;28;20035;-77
2021/12/03 08:45:38;;;;;;;11.07;2.50;;;17.50;99.90;;;;;;5289894;28;20031;-75
2021/12/03 08:48:09;;;;;;;7.18;2.60;;;17.40;99.90;;;;;;5289735;28;20043;-76
2021/12/03 08:50:53;;;;;;;14.75;2.90;;;17.40;99.90;;;;;;5289391;28;20031;-76
2021/12/03 08:55:55;;;;;;;12.48;2.95;;;17.90;99.90;;;;;;5289271;28;20023;-75
2021/12/03 08:58:27;;;;;;;5.65;2.40;;;17.30;99.90;;;;;;5289369;28;20112;-75
2021/12/03 09:00:58;;;;;;;7.50;3.08;;;17.70;99.90;;;;;;5289422;28;20016;-75
2021/12/03 09:03:29;;;;;;;13.98;2.33;;;17.50;99.90;;;;;;5289425;28;20012;-75
2021/12/03 09:06:00;;;;;;;10.38;2.00;;;17.50;99.90;;;;;;5289402;28;20016;-74
2021/12/03 09:08:31;;;;;;;9.75;2.65;;;18.20;99.90;;;;;;5289343;28;20080;-75
2021/12/03 09:11:02;;;;;;;6.97;2.22;;;18.10;99.90;;;;;;5289491;28;20020;-75
2021/12/03 09:13:33;;;;;;;10.77;2.50;;;18.50;99.90;;;;;;5288735;28;20435;-76
2021/12/03 09:16:08;;;;;;;6.22;2.03;;;18.30;99.90;;;;;;5289678;28;20135;-74
2021/12/03 09:18:43;;;;;;;7.18;2.65;;;17.90;99.90;;;;;;5289285;28;20024;-75
2021/12/03 09:21:29;;;;;;;8.75;2.35;;;18.00;99.90;;;;;;5289646;28;20020;-75
2021/12/03 09:26:38;;;;;;;8.70;2.40;;;18.30;99.90;;;;;;5289439;28;20034;-74
2021/12/03 09:29:12;;;;;;;11.55;2.17;;;17.90;99.90;;;;;;5289677;28;20052;-77
2021/12/03 09:31:44;;;;;;;6.18;2.08;;;18.60;99.90;;;;;;5289512;28;20072;-75
2021/12/03 09:34:18;;;;;;;10.45;2.05;;;18.20;99.90;;;;;;5288635;28;20039;-75
2021/12/03 09:36:49;;;;;;;8.73;2.47;;;18.30;99.90;;;;;;5287154;28;20023;-75
2021/12/03 09:39:22;;;;;;;10.13;2.15;;;18.30;99.90;;;;;;5289175;28;20370;-76
2021/12/03 09:41:57;;;;;;;8.60;2.10;;;18.30;99.90;;;;;;5289309;28;20020;-75
2021/12/03 09:44:30;;;;;;;8.57;2.10;;;18.60;99.90;;;;;;5289085;28;20011;-74
2021/12/03 09:47:01;;;;;;;13.98;2.58;;;18.80;99.90;;;;;;5289009;28;20076;-74
2021/12/03 09:49:37;;;;;;;10.27;2.20;;;18.90;99.90;;;;;;5288710;28;20032;-75
2021/12/03 09:52:16;;;;;;;9.55;2.33;;;18.10;99.90;;;;;;5288911;28;20028;-77
2021/12/03 09:54:52;;;;;;;7.32;2.03;;;17.90;99.90;;;;;;5285862;28;20066;-76
2021/12/03 10:01:01;;;;;;;9.80;2.15;;;18.00;99.90;;;;;;5266957;28;20040;-75
2021/12/03 10:07:27;;;;;;;8.50;2.35;;;17.90;99.90;;;;;;5289577;28;20115;-75
2021/12/03 10:14:39;;;;;;;7.70;2.00;;;18.30;99.90;;;;;;5292313;28;20428;-75
2021/12/03 10:20:18;;;;;;;5.78;1.75;;;18.80;99.90;;;;;;5292842;28;20425;-75
2021/12/03 10:24:28;;;;;;;11.00;1.85;;;18.60;99.90;;;;;;5287156;28;20148;-75
2021/12/03 10:29:18;;;;;;;8.23;2.05;;;19.00;99.90;;;;;;5286703;28;19919;-74
2021/12/03 10:37:30;;;;;;;6.65;1.20;;;19.70;99.90;;;;;;5292621;28;20519;-74
2021/12/03 10:40:08;;;;;;;4.13;1.30;;;19.50;99.90;;;;;;5291613;28;20044;-75
2021/12/03 10:43:05;;;;;;;4.28;1.60;;;19.10;99.90;;;;;;5274044;28;20481;-74
2021/12/03 10:45:39;;;;;;;6.80;1.92;;;19.50;99.90;;;;;;5289756;28;20023;-74
2021/12/03 10:48:24;;;;;;;6.80;1.85;;;19.80;99.90;;;;;;5292372;28;20024;-75
2021/12/03 10:51:14;;;;;;;6.15;1.50;;;19.50;99.90;;;;;;5292385;28;20058;-74
2021/12/03 10:53:55;;;;;;;3.83;1.20;;;19.30;99.90;;;;;;5291982;28;20494;-74
2021/12/03 11:30:31;;;;;;;9.00;2.35;;;19.40;99.90;;;;;;5289405;28;20059;-76
2021/12/03 12:47:22;;;;;;;9.10;2.10;;;19.00;99.90;;;;;;5252328;28;20032;-75
2021/12/03 12:55:38;;;;;;;8.40;2.50;;;19.00;99.90;;;;;;5277810;28;20043;-77
2021/12/03 14:40:11;;;;;;;10.80;5.70;;;15.60;99.90;;;;;;5293154;28;20084;-75
2021/12/03 14:42:57;;;;;;;9.95;4.97;;;15.60;99.90;;;;;;5291893;28;20106;-74
2021/12/03 14:45:46;;;;;;;12.30;5.57;;;15.50;99.90;;;;;;5292585;28;20016;-74
2021/12/03 14:57:10;;;;;;;15.50;6.95;;;15.50;99.90;;;;;;5292540;28;20026;-74
2021/12/03 15:06:01;;;;;;;12.50;5.88;;;15.60;99.90;;;;;;5271463;28;20479;-75
2021/12/03 15:08:38;;;;;;;19.90;7.90;;;15.50;99.90;;;;;;5282916;28;20138;-75
2021/12/03 15:22:19;;;;;;;13.73;5.38;;;15.30;99.90;;;;;;5239747;28;20409;-78
2021/12/03 15:28:01;;;;;;;11.30;6.00;;;15.20;99.90;;;;;;5271060;28;20028;-75
2021/12/03 15:33:30;;;;;;;10.05;5.90;;;15.10;99.90;;;;;;5284206;28;20035;-75
2021/12/03 15:36:12;;;;;;;15.85;7.10;;;15.10;99.90;;;;;;5291283;28;20374;-76
2021/12/03 16:06:18;;;;;;;9.80;5.95;;;15.10;99.90;;;;;;5290350;28;20054;-76
2021/12/03 16:08:50;;;;;;;10.32;3.33;;;15.00;99.90;;;;;;5251599;28;20032;-78
2021/12/03 16:11:37;;;;;;;10.57;4.18;;;15.20;99.90;;;;;;5269802;28;20056;-77
2021/12/03 16:22:08;;;;;;;7.03;3.17;;;15.10;99.90;;;;;;5291015;28;20027;-78
2021/12/03 16:25:08;;;;;;;7.97;3.55;;;15.10;99.90;;;;;;5272635;28;20080;-78
2021/12/03 16:52:41;;;;;;;10.00;4.45;;;14.80;99.90;;;;;;5290853;28;20179;-77
2021/12/03 16:55:13;;;;;;;13.85;4.28;;;14.80;99.90;;;;;;5290482;28;20114;-77
2021/12/03 16:57:46;;;;;;;13.95;3.97;;;14.40;99.90;;;;;;5290160;28;20054;-77
2021/12/03 17:00:35;;;;;;;18.65;6.43;;;14.70;99.90;;;;;;5288086;28;20076;-77
2021/12/03 17:03:27;;;;;;;10.43;4.07;;;14.30;99.90;;;;;;5290489;28;20050;-76
2021/12/03 17:14:33;;;;;;;9.07;3.58;;;14.90;99.90;;;;;;5290457;28;20114;-77
2021/12/03 17:53:48;;;;;;;6.15;1.50;;;14.60;99.90;;;;;;5207512;28;20477;-77
2021/12/03 17:56:20;;;;;;;6.05;1.75;;;14.70;99.90;;;;;;5207573;28;20100;-78
2021/12/03 17:58:56;;;;;;;5.78;1.10;;;14.50;99.90;;;;;;5207230;28;20053;-77
2021/12/03 18:12:28;;;;;;;24.02;7.32;;;14.70;99.90;;;;;;5293850;28;20124;-77
2021/12/03 18:48:57;;;;;;;9.07;3.75;;;14.30;99.90;;;;;;5292683;28;20114;-76
2021/12/03 18:57:04;;;;;;;9.57;3.60;;;14.30;99.90;;;;;;5292611;28;20032;-76
2021/12/03 18:59:54;;;;;;;9.65;4.90;;;14.10;99.90;;;;;;5292947;28;20019;-76
2021/12/03 19:02:26;;;;;;;17.08;7.03;;;14.20;99.90;;;;;;5274771;28;20030;-75
2021/12/03 19:07:43;;;;;;;7.57;3.30;;;14.20;99.90;;;;;;5292830;28;20030;-76
2021/12/03 19:10:25;;;;;;;11.10;4.50;;;14.10;99.90;;;;;;5292575;28;20036;-76
2021/12/03 19:13:02;;;;;;;19.83;7.85;;;14.20;99.90;;;;;;5292725;28;20020;-76
2021/12/03 19:15:34;;;;;;;8.32;3.50;;;14.10;99.90;;;;;;5292129;28;20055;-76
2021/12/03 19:18:05;;;;;;;7.07;2.70;;;14.00;99.90;;;;;;5291986;28;20153;-76
2021/12/03 19:20:40;;;;;;;6.65;3.05;;;14.10;99.90;;;;;;5284319;28;20143;-78
2021/12/03 19:23:11;;;;;;;10.27;3.22;;;14.10;99.90;;;;;;5277799;28;20157;-76
2021/12/03 19:25:42;;;;;;;6.18;3.17;;;14.10;99.90;;;;;;5290436;28;20094;-75
2021/12/03 19:28:18;;;;;;;12.70;5.22;;;13.90;99.90;;;;;;5251514;28;20050;-78
2021/12/03 19:30:48;;;;;;;11.43;3.03;;;13.90;99.90;;;;;;5270346;28;20493;-76
2021/12/03 19:33:19;;;;;;;13.70;4.88;;;14.00;99.90;;;;;;5252372;28;20016;-75
2021/12/03 19:35:51;;;;;;;12.35;3.15;;;13.80;99.90;;;;;;5272802;28;20526;-78
2021/12/03 19:38:22;;;;;;;12.48;3.75;;;13.90;99.90;;;;;;5270327;28;20024;-79
2021/12/03 19:40:57;;;;;;;8.63;3.53;;;13.80;99.90;;;;;;5285755;28;20052;-77
2021/12/03 19:43:41;;;;;;;7.78;2.95;;;14.00;99.90;;;;;;5291645;28;20075;-76
2021/12/03 19:46:19;;;;;;;19.42;9.63;;;14.00;99.90;;;;;;5270230;28;20034;-76
2021/12/03 19:49:01;;;;;;;23.55;11.00;;;13.80;99.90;;;;;;5291031;28;20370;-77
2021/12/03 19:51:35;;;;;;;13.07;5.05;;;13.80;99.90;;;;;;5291686;28;20019;-77
2021/12/03 19:54:06;;;;;;;9.23;3.88;;;13.90;99.90;;;;;;5291575;28;20023;-78
2021/12/03 19:56:39;;;;;;;11.20;4.10;;;13.90;99.90;;;;;;5283922;28;20032;-78
2021/12/03 19:59:11;;;;;;;14.95;4.30;;;13.70;99.90;;;;;;5283311;28;20054;-78
2021/12/03 20:01:43;;;;;;;13.07;4.60;;;13.80;99.90;;;;;;5272158;28;20030;-78
2021/12/03 20:04:14;;;;;;;15.88;6.95;;;13.80;99.90;;;;;;5270649;28;20032;-76
2021/12/03 20:06:46;;;;;;;11.70;4.95;;;13.70;99.90;;;;;;5278973;28;20070;-77
2021/12/03 20:09:21;;;;;;;10.50;6.35;;;13.90;99.90;;;;;;5269994;28;20035;-77
2021/12/03 20:11:55;;;;;;;16.33;7.05;;;13.80;99.90;;;;;;5270034;28;20020;-76
2021/12/03 20:14:26;;;;;;;8.88;5.50;;;13.70;99.90;;;;;;5270078;28;20467;-77
2021/12/03 20:17:11;;;;;;;10.52;5.18;;;13.90;99.90;;;;;;5251653;28;20031;-76
2021/12/03 20:19:47;;;;;;;12.32;5.40;;;13.80;99.90;;;;;;5270619;28;20539;-76
2021/12/03 20:22:25;;;;;;;7.00;4.50;;;13.90;99.90;;;;;;5270061;28;20023;-77
2021/12/03 20:28:05;;;;;;;11.45;5.75;;;13.80;99.90;;;;;;5278575;28;20054;-76
2021/12/03 20:30:45;;;;;;;12.45;6.28;;;14.00;99.90;;;;;;5269750;28;20047;-78